Portada
METAR-TAF:

METAR-TAF

Aeropuertos :

Aeropuerto de Gibraltar

Gibraltar, Gibraltar

latitud: 36-09N, longitud: 005-21W, altitud: 5 m

Observación

El informe se hizo hace 40 minutos, a las 07:50 UTC
Viento 7 kt del oeste-suroeste
Temperatura 19°C
Humedad 60%
Presión 1019 hPa
Visibilidad 10 km o más
sin nubes por debajo de 1500 m y sin presencia de cumulonimbus.

METAR: LXGB 130750Z 25007KT CAVOK 19/11 Q1019 NOSIG RMK BLU BLU

Hora: 10:30 (08:30 UTC)

Pronóstico

El informe se hizo hace 3 horas y 39 minutos, a las 04:51 UTC
Pronóstico válido del 13 a las 06 UTC al 13 a las 15 UTC
Viento 8 kt del oeste
Visibilidad 10 km o más
sin nubes por debajo de 1500 m y sin presencia de cumulonimbus.
Probabilidad 30% :
Temporalmente
del 13 a las 11 UTC al 13 a las 15 UTC
Viento 15 kt del suroeste

TAF: LXGB 130451Z 1306/1315 26008KT CAVOK PROB30 TEMPO 1311/1315 22015KT 520002

Observaciones y pronósticos meteorológicos de más de 4000 aeropuertos (mensajes METAR y TAF).

Los puntos amarillos y rojos representan las estaciones disponibles.

Ponga el ratón en el punto deseado para ver el nombre de la estación.

Haga clic para ver las observaciones y los pronósticos meteorológicos.

Para cambiar el mapa : haga clic en los botones verdes con una cruz de color negro para hacer un zoom, en el botón verde con un guión para alejar o en las flechas verdes para mapas adyacentes.


METAR-TAF: